Harned, Kentucky
Current Conditions -  °F | °C
As of 1:58 AM on Friday 24 Oct 2014 (Local Time) from KFTK Reporting Station
Overcast Overcast  
Wind Chill: 42°   Ceiling: 19000
Heat Index: 42°   Visibility: 10mi
Dew Point: 41°   Wind: 0mph
Humidity: 95%   Direction: NA
Pressure: 30.1"   Gusts: NA
Location:  37.75°N, 86.41°W
Report Text: KFTK 240658Z AUTO 00000KT 10SM OVC190 06/05 A3010 RMK AO2 SLP196 T00570049
Loading
Personal Weather Stations






























Interactive Weather Map
Tropical Storm Tracking
New forecast layout! Learn more

10-Day Weather Forecast

Advertisements
Track Severe Weather on mobile